createdAt,value
2018-07-21T00:00:48.450Z,18.99
2018-07-21T00:01:48.466Z,18.98
2018-07-21T00:02:48.478Z,19.00
2018-07-21T00:03:48.501Z,18.90
2018-07-21T00:04:48.569Z,18.98
2018-07-21T00:05:48.527Z,18.87
2018-07-21T00:06:48.543Z,18.95
2018-07-21T00:07:48.571Z,18.99
2018-07-21T00:08:48.571Z,18.91
2018-07-21T00:09:48.600Z,18.91
2018-07-21T00:10:48.655Z,18.94
2018-07-21T00:11:48.630Z,18.91
2018-07-21T00:12:48.641Z,18.94
2018-07-21T00:13:48.647Z,18.91
2018-07-21T00:14:48.677Z,18.95
2018-07-21T00:15:48.683Z,18.90
2018-07-21T00:16:48.747Z,18.87
2018-07-21T00:17:48.720Z,18.92
2018-07-21T00:18:48.733Z,18.87
2018-07-21T00:19:48.762Z,18.91
2018-07-21T00:20:48.819Z,18.88
2018-07-21T00:21:48.788Z,18.91
2018-07-21T00:22:48.848Z,18.90
2018-07-21T00:23:48.816Z,18.91
2018-07-21T00:24:48.834Z,18.91
2018-07-21T00:25:48.850Z,18.87
2018-07-21T00:26:48.914Z,18.92
2018-07-21T00:27:48.885Z,18.88
2018-07-21T00:28:48.953Z,18.92
2018-07-21T00:29:48.917Z,18.88
2018-07-21T00:30:48.942Z,18.92
2018-07-21T00:31:48.950Z,18.91
2018-07-21T00:32:49.000Z,18.99
2018-07-21T00:33:48.986Z,18.91
2018-07-21T00:34:49.054Z,18.91
2018-07-21T00:35:49.013Z,18.92
2018-07-21T00:36:49.025Z,18.88
2018-07-21T00:37:49.042Z,18.90
2018-07-21T00:38:49.105Z,18.94
2018-07-21T00:39:49.089Z,18.87
2018-07-21T00:40:49.152Z,18.91
2018-07-21T00:41:49.121Z,18.94
2018-07-21T00:42:49.134Z,18.88
2018-07-21T00:43:49.142Z,18.82
2018-07-21T00:44:49.212Z,18.81
2018-07-21T00:45:49.177Z,18.75
2018-07-21T00:46:49.190Z,18.87
2018-07-21T00:47:49.202Z,18.76
2018-07-21T00:48:49.225Z,18.91
2018-07-21T00:49:49.270Z,18.76
2018-07-21T00:50:49.286Z,18.81
2018-07-21T00:51:49.274Z,18.88
2018-07-21T00:52:49.372Z,18.88
2018-07-21T00:53:49.314Z,18.80
2018-07-21T00:54:49.316Z,18.91
2018-07-21T00:55:49.336Z,18.80
2018-07-21T00:56:49.348Z,18.88
2018-07-21T00:57:49.365Z,18.90
2018-07-21T00:58:49.435Z,18.91
2018-07-21T00:59:49.406Z,18.95
2018-07-21T01:00:49.412Z,18.91
2018-07-21T01:01:49.432Z,18.88
2018-07-21T01:02:49.440Z,18.88
2018-07-21T01:03:49.462Z,18.90
2018-07-21T01:04:49.486Z,18.88
2018-07-21T01:05:49.492Z,18.78
2018-07-21T01:06:49.515Z,18.88
2018-07-21T01:07:49.534Z,18.88
2018-07-21T01:08:49.611Z,18.94
2018-07-21T01:09:49.566Z,18.94
2018-07-21T01:10:49.583Z,18.88
2018-07-21T01:11:49.593Z,18.88
2018-07-21T01:12:49.605Z,18.91
2018-07-21T01:13:49.630Z,18.87
2018-07-21T01:14:49.680Z,18.91
2018-07-21T01:15:49.657Z,18.91
2018-07-21T01:16:49.672Z,18.80
2018-07-21T01:17:49.689Z,18.85
2018-07-21T01:18:49.707Z,18.80
2018-07-21T01:19:49.731Z,18.84
2018-07-21T01:20:49.759Z,18.87
2018-07-21T01:21:49.755Z,18.92
2018-07-21T01:22:49.822Z,18.81
2018-07-21T01:23:49.788Z,18.85
2018-07-21T01:24:49.808Z,18.84
2018-07-21T01:25:49.827Z,18.73
2018-07-21T01:26:49.858Z,18.76
2018-07-21T01:27:49.856Z,18.81
2018-07-21T01:28:49.921Z,18.82
2018-07-21T01:29:49.882Z,18.82
2018-07-21T01:30:49.904Z,18.76
2018-07-21T01:31:49.927Z,18.90
2018-07-21T01:32:50.020Z,18.88
2018-07-21T01:33:49.955Z,18.90
2018-07-21T01:34:50.018Z,18.94
2018-07-21T01:35:49.985Z,18.94
2018-07-21T01:36:50.004Z,18.85
2018-07-21T01:37:50.018Z,19.04
2018-07-21T01:38:50.089Z,18.95
2018-07-21T01:39:50.082Z,19.16
2018-07-21T01:40:50.124Z,19.08
2018-07-21T01:41:50.148Z,19.10
2018-07-21T01:42:50.148Z,19.10
2018-07-21T01:43:50.134Z,19.00
2018-07-21T01:44:50.140Z,19.06
2018-07-21T01:45:50.148Z,19.08
2018-07-21T01:46:50.213Z,19.10
2018-07-21T01:47:50.178Z,19.14
2018-07-21T01:48:50.204Z,19.08
2018-07-21T01:49:50.213Z,19.18
2018-07-21T01:50:50.237Z,19.13
2018-07-21T01:51:50.250Z,19.07
2018-07-21T01:52:50.258Z,19.14
2018-07-21T01:53:50.277Z,19.19
2018-07-21T01:54:50.300Z,19.16
2018-07-21T01:55:50.314Z,19.21
2018-07-21T01:56:50.325Z,19.26
2018-07-21T01:57:50.343Z,19.19
2018-07-21T01:58:50.356Z,19.25
2018-07-21T01:59:50.380Z,19.25
2018-07-21T02:00:50.392Z,19.28
2018-07-21T02:01:50.408Z,19.21
2018-07-21T02:02:50.424Z,19.23
2018-07-21T02:03:50.442Z,19.25
2018-07-21T02:04:50.510Z,19.23
2018-07-21T02:05:50.474Z,19.25
2018-07-21T02:06:50.486Z,19.25
2018-07-21T02:07:50.502Z,19.29
2018-07-21T02:08:50.524Z,19.28
2018-07-21T02:09:50.536Z,19.26
2018-07-21T02:10:50.602Z,19.22
2018-07-21T02:11:50.576Z,19.29
2018-07-21T02:12:50.592Z,19.26
2018-07-21T02:13:50.604Z,19.28
2018-07-21T02:14:50.621Z,19.32
2018-07-21T02:15:50.646Z,19.36
2018-07-21T02:16:50.661Z,19.32
2018-07-21T02:17:50.667Z,19.37
2018-07-21T02:18:50.687Z,19.40
2018-07-21T02:19:50.699Z,19.41
2018-07-21T02:20:50.719Z,19.33
2018-07-21T02:21:50.734Z,19.26
2018-07-21T02:22:50.804Z,19.36
2018-07-21T02:23:50.802Z,19.28
2018-07-21T02:24:50.789Z,19.21
2018-07-21T02:25:50.803Z,19.25
2018-07-21T02:26:50.871Z,19.33
2018-07-21T02:27:50.833Z,19.29
2018-07-21T02:28:50.908Z,19.25
2018-07-21T02:29:50.866Z,19.32
2018-07-21T02:30:50.882Z,19.29
2018-07-21T02:31:50.898Z,19.28
2018-07-21T02:32:50.923Z,19.39
2018-07-21T02:33:50.930Z,19.33
2018-07-21T02:34:51.005Z,19.43
2018-07-21T02:35:50.968Z,19.37
2018-07-21T02:36:50.980Z,19.46
2018-07-21T02:37:50.990Z,19.48
2018-07-21T02:38:51.012Z,19.44
2018-07-21T02:39:51.028Z,19.54
2018-07-21T02:40:51.050Z,19.37
2018-07-21T02:41:51.060Z,19.44
2018-07-21T02:42:51.081Z,19.39
2018-07-21T02:43:51.113Z,19.43
2018-07-21T02:44:51.121Z,19.44
2018-07-21T02:45:51.126Z,19.39
2018-07-21T02:46:51.152Z,19.44
2018-07-21T02:47:51.169Z,19.37
2018-07-21T02:48:51.189Z,19.36
2018-07-21T02:49:51.192Z,19.40
2018-07-21T02:50:51.213Z,19.43
2018-07-21T02:51:51.237Z,19.37
2018-07-21T02:52:51.296Z,19.33
2018-07-21T02:53:51.255Z,19.37
2018-07-21T02:54:51.277Z,19.29
2018-07-21T02:55:51.286Z,19.28
2018-07-21T02:56:51.323Z,19.33
2018-07-21T02:57:51.379Z,19.31
2018-07-21T02:58:51.394Z,19.33
2018-07-21T02:59:51.360Z,19.26
2018-07-21T03:00:51.371Z,19.28
2018-07-21T03:01:51.383Z,19.32
2018-07-21T03:02:51.406Z,19.29
2018-07-21T03:03:51.421Z,19.22
2018-07-21T03:04:51.440Z,19.28
2018-07-21T03:05:51.460Z,19.23
2018-07-21T03:06:51.480Z,19.29
2018-07-21T03:07:51.491Z,19.25
2018-07-21T03:08:51.510Z,19.23
2018-07-21T03:09:51.535Z,19.26
2018-07-21T03:10:51.541Z,19.23
2018-07-21T03:11:51.560Z,19.28
2018-07-21T03:12:51.569Z,19.21
2018-07-21T03:13:51.593Z,19.23
2018-07-21T03:14:51.603Z,19.32
2018-07-21T03:15:51.625Z,19.23
2018-07-21T03:16:51.689Z,19.28
2018-07-21T03:17:51.655Z,19.28
2018-07-21T03:18:51.674Z,19.25
2018-07-21T03:19:51.688Z,19.25
2018-07-21T03:20:51.702Z,19.25
2018-07-21T03:21:51.717Z,19.23
2018-07-21T03:22:51.736Z,19.25
2018-07-21T03:23:51.750Z,19.18
2018-07-21T03:24:51.758Z,19.18
2018-07-21T03:25:51.786Z,19.26
2018-07-21T03:26:51.797Z,19.28
2018-07-21T03:27:51.811Z,19.31
2018-07-21T03:28:51.879Z,19.26
2018-07-21T03:29:51.845Z,19.22
2018-07-21T03:30:51.873Z,19.28
2018-07-21T03:31:51.882Z,19.28
2018-07-21T03:32:51.895Z,19.29
2018-07-21T03:33:51.946Z,19.33
2018-07-21T03:34:51.985Z,19.28
2018-07-21T03:35:51.943Z,19.25
2018-07-21T03:36:51.965Z,19.28
2018-07-21T03:37:51.985Z,19.16
2018-07-21T03:38:52.001Z,19.22
2018-07-21T03:39:52.013Z,19.13
2018-07-21T03:40:52.076Z,19.16
2018-07-21T03:41:52.042Z,19.16
2018-07-21T03:42:52.069Z,19.18
2018-07-21T03:43:52.081Z,19.21
2018-07-21T03:44:52.087Z,19.19
2018-07-21T03:45:52.142Z,19.22
2018-07-21T03:46:52.123Z,19.19
2018-07-21T03:47:52.145Z,19.22
2018-07-21T03:48:52.157Z,19.13
2018-07-21T03:49:52.170Z,19.13
2018-07-21T03:50:52.183Z,19.10
2018-07-21T03:51:52.219Z,18.99
2018-07-21T03:52:52.330Z,19.00
2018-07-21T03:53:52.242Z,19.07
2018-07-21T03:54:52.254Z,19.00
2018-07-21T03:55:52.271Z,18.99
2018-07-21T03:56:52.285Z,19.00
2018-07-21T03:57:52.345Z,19.06
2018-07-21T03:58:52.315Z,19.04
2018-07-21T03:59:52.333Z,19.00
2018-07-21T04:00:52.354Z,19.10
2018-07-21T04:01:52.373Z,19.07
2018-07-21T04:02:52.387Z,19.02
2018-07-21T04:03:52.401Z,19.02
2018-07-21T04:04:52.496Z,19.00
2018-07-21T04:05:52.429Z,18.98
2018-07-21T04:06:52.457Z,18.94
2018-07-21T04:07:52.463Z,18.88
2018-07-21T04:08:52.593Z,18.91
2018-07-21T04:09:52.499Z,18.94
2018-07-21T04:10:52.536Z,18.87
2018-07-21T04:11:52.531Z,18.90
2018-07-21T04:12:52.540Z,18.94
2018-07-21T04:13:52.560Z,18.94
2018-07-21T04:14:52.582Z,18.90
2018-07-21T04:15:52.597Z,18.92
2018-07-21T04:16:52.755Z,18.94
2018-07-21T04:17:52.630Z,18.88
2018-07-21T04:18:52.644Z,18.90
2018-07-21T04:19:52.658Z,18.78
2018-07-21T04:20:52.674Z,18.84
2018-07-21T04:21:52.684Z,18.73
2018-07-21T04:22:52.756Z,18.82
2018-07-21T04:23:52.719Z,18.78
2018-07-21T04:24:52.737Z,18.76
2018-07-21T04:25:52.756Z,18.84
2018-07-21T04:26:52.768Z,18.85
2018-07-21T04:27:52.785Z,18.76
2018-07-21T04:28:52.806Z,18.81
2018-07-21T04:29:52.818Z,18.84
2018-07-21T04:30:52.832Z,18.84
2018-07-21T04:31:52.851Z,18.81
2018-07-21T04:32:52.866Z,18.78
2018-07-21T04:33:52.879Z,18.78
2018-07-21T04:34:52.956Z,18.75
2018-07-21T04:35:52.922Z,18.78
2018-07-21T04:36:52.932Z,18.72
2018-07-21T04:37:52.950Z,18.73
2018-07-21T04:38:52.972Z,18.73
2018-07-21T04:39:52.980Z,18.73
2018-07-21T04:40:53.056Z,18.80
2018-07-21T04:41:53.021Z,18.75
2018-07-21T04:42:53.034Z,18.70
2018-07-21T04:43:53.043Z,18.72
2018-07-21T04:44:53.066Z,18.70
2018-07-21T04:45:53.082Z,18.69
2018-07-21T04:46:53.097Z,18.65
2018-07-21T04:47:53.114Z,18.75
2018-07-21T04:48:53.128Z,18.70
2018-07-21T04:49:53.140Z,18.69
2018-07-21T04:50:53.152Z,18.80
2018-07-21T04:51:53.178Z,18.70
2018-07-21T04:52:53.246Z,18.63
2018-07-21T04:53:53.256Z,18.70
2018-07-21T04:54:53.224Z,18.70
2018-07-21T04:55:53.238Z,18.69
2018-07-21T04:56:53.256Z,18.65
2018-07-21T04:57:53.270Z,18.65
2018-07-21T04:58:53.283Z,18.73
2018-07-21T04:59:53.322Z,18.72
2018-07-21T05:00:53.452Z,18.67
2018-07-21T05:01:53.328Z,18.70
2018-07-21T05:02:53.352Z,18.70
2018-07-21T05:03:53.363Z,18.67
2018-07-21T05:04:53.386Z,18.73
2018-07-21T05:05:53.399Z,18.70
2018-07-21T05:06:53.415Z,18.69
2018-07-21T05:07:53.434Z,18.69
2018-07-21T05:08:53.444Z,18.58
2018-07-21T05:09:53.466Z,18.65
2018-07-21T05:10:53.531Z,18.65
2018-07-21T05:11:53.492Z,18.58
2018-07-21T05:12:53.508Z,18.66
2018-07-21T05:13:53.530Z,18.69
2018-07-21T05:14:53.551Z,18.67
2018-07-21T05:15:53.569Z,18.72
2018-07-21T05:16:53.628Z,18.72
2018-07-21T05:17:53.592Z,18.57
2018-07-21T05:18:53.624Z,18.58
2018-07-21T05:19:53.627Z,18.70
2018-07-21T05:20:53.635Z,18.55
2018-07-21T05:21:53.661Z,18.69
2018-07-21T05:22:53.722Z,18.54
2018-07-21T05:23:53.696Z,18.55
2018-07-21T05:24:53.753Z,18.55
2018-07-21T05:25:53.720Z,18.55
2018-07-21T05:26:53.732Z,18.55
2018-07-21T05:27:53.755Z,18.51
2018-07-21T05:28:53.825Z,18.50
2018-07-21T05:29:53.782Z,18.62
2018-07-21T05:30:53.912Z,18.48
2018-07-21T05:31:53.818Z,18.48
2018-07-21T05:32:53.828Z,18.52
2018-07-21T05:33:53.853Z,18.51
2018-07-21T05:34:53.868Z,18.51
2018-07-21T05:35:53.887Z,18.47
2018-07-21T05:36:53.982Z,18.52
2018-07-21T05:37:53.907Z,18.54
2018-07-21T05:38:53.929Z,18.51
2018-07-21T05:39:54.005Z,18.55
2018-07-21T05:40:53.964Z,18.50
2018-07-21T05:41:53.975Z,18.50
2018-07-21T05:42:54.043Z,18.54
2018-07-21T05:43:54.018Z,18.50
2018-07-21T05:44:54.030Z,18.55
2018-07-21T05:45:54.040Z,18.50
2018-07-21T05:46:54.063Z,18.51
2018-07-21T05:47:54.077Z,18.50
2018-07-21T05:48:54.098Z,18.62
2018-07-21T05:49:54.113Z,18.62
2018-07-21T05:50:54.123Z,18.58
2018-07-21T05:51:54.140Z,18.58
2018-07-21T05:52:54.158Z,18.55
2018-07-21T05:53:54.169Z,18.58
2018-07-21T05:54:54.236Z,18.65
2018-07-21T05:55:54.196Z,18.55
2018-07-21T05:56:54.214Z,18.52
2018-07-21T05:57:54.290Z,18.51
2018-07-21T05:58:54.244Z,18.54
2018-07-21T05:59:54.267Z,18.57
2018-07-21T06:00:54.282Z,18.55
2018-07-21T06:01:54.303Z,18.54
2018-07-21T06:02:54.363Z,18.57
2018-07-21T06:03:54.378Z,18.75
2018-07-21T06:04:54.348Z,18.67
2018-07-21T06:05:54.367Z,18.65
2018-07-21T06:06:54.378Z,18.66
2018-07-21T06:07:54.400Z,18.62
2018-07-21T06:08:54.408Z,18.76
2018-07-21T06:09:54.485Z,18.67
2018-07-21T06:10:54.451Z,18.70
2018-07-21T06:11:54.460Z,18.78
2018-07-21T06:12:54.476Z,18.70
2018-07-21T06:13:54.490Z,18.72
2018-07-21T06:14:54.510Z,18.72
2018-07-21T06:15:54.527Z,18.75
2018-07-21T06:16:54.602Z,18.66
2018-07-21T06:17:54.556Z,18.69
2018-07-21T06:18:54.574Z,18.73
2018-07-21T06:19:54.631Z,18.73
2018-07-21T06:20:54.604Z,18.69
2018-07-21T06:21:54.624Z,18.70
2018-07-21T06:22:54.639Z,18.80
2018-07-21T06:23:54.653Z,18.88
2018-07-21T06:24:54.675Z,18.95
2018-07-21T06:25:54.718Z,18.80
2018-07-21T06:26:54.703Z,18.80
2018-07-21T06:27:54.787Z,18.91
2018-07-21T06:28:54.735Z,18.87
2018-07-21T06:29:54.744Z,18.91
2018-07-21T06:30:54.768Z,18.95
2018-07-21T06:31:54.792Z,18.94
2018-07-21T06:32:54.831Z,18.88
2018-07-21T06:33:54.871Z,18.92
2018-07-21T06:34:54.828Z,18.91
2018-07-21T06:35:54.844Z,18.99
2018-07-21T06:36:54.866Z,18.85
2018-07-21T06:37:54.883Z,18.99
2018-07-21T06:38:54.897Z,19.00
2018-07-21T06:39:54.959Z,19.08
2018-07-21T06:40:54.927Z,19.06
2018-07-21T06:41:54.945Z,19.18
2018-07-21T06:42:54.960Z,19.13
2018-07-21T06:43:55.039Z,19.16
2018-07-21T06:44:54.984Z,19.23
2018-07-21T06:45:55.015Z,19.31
2018-07-21T06:46:55.027Z,19.31
2018-07-21T06:47:55.044Z,19.39
2018-07-21T06:48:55.059Z,19.47
2018-07-21T06:49:55.079Z,19.69
2018-07-21T06:50:55.093Z,19.74
2018-07-21T06:51:55.108Z,19.94
2018-07-21T06:52:55.124Z,19.98
2018-07-21T06:53:55.137Z,19.92
2018-07-21T06:54:55.165Z,20.05
2018-07-21T06:55:55.182Z,20.08
2018-07-21T06:56:55.189Z,20.21
2018-07-21T06:57:55.200Z,20.36
2018-07-21T06:58:55.230Z,20.42
2018-07-21T06:59:55.241Z,20.38
2018-07-21T07:00:55.253Z,20.41
2018-07-21T07:01:55.272Z,20.24
2018-07-21T07:02:55.295Z,20.38
2018-07-21T07:03:55.355Z,20.39
2018-07-21T07:04:55.323Z,20.62
2018-07-21T07:05:55.333Z,20.50
2018-07-21T07:06:55.355Z,20.52
2018-07-21T07:07:55.374Z,20.64
2018-07-21T07:08:55.395Z,20.80
2018-07-21T07:09:55.400Z,20.73
2018-07-21T07:10:55.422Z,20.84
2018-07-21T07:11:55.453Z,20.66
2018-07-21T07:12:55.455Z,20.62
2018-07-21T07:13:55.473Z,20.72
2018-07-21T07:14:55.495Z,20.79
2018-07-21T07:15:55.563Z,20.73
2018-07-21T07:16:55.517Z,20.88
2018-07-21T07:17:55.541Z,20.98
2018-07-21T07:18:55.556Z,20.95
2018-07-21T07:19:55.575Z,20.99
2018-07-21T07:20:55.673Z,20.94
2018-07-21T07:21:55.659Z,20.94
2018-07-21T07:22:55.633Z,21.14
2018-07-21T07:23:55.652Z,21.37
2018-07-21T07:24:55.660Z,21.52
2018-07-21T07:25:55.673Z,21.56
2018-07-21T07:26:55.715Z,21.59
2018-07-21T07:27:55.708Z,21.40
2018-07-21T07:28:55.725Z,21.52
2018-07-21T07:29:55.752Z,21.47
2018-07-21T07:30:55.775Z,21.58
2018-07-21T07:31:55.783Z,21.54
2018-07-21T07:32:55.852Z,21.65
2018-07-21T07:33:55.870Z,21.72
2018-07-21T07:34:55.837Z,21.68
2018-07-21T07:35:55.853Z,21.75
2018-07-21T07:36:55.868Z,21.65
2018-07-21T07:37:55.890Z,21.68
2018-07-21T07:38:55.952Z,21.71
2018-07-21T07:39:55.965Z,21.74
2018-07-21T07:40:55.932Z,21.62
2018-07-21T07:41:55.952Z,21.54
2018-07-21T07:42:55.980Z,21.72
2018-07-21T07:43:55.989Z,21.62
2018-07-21T07:44:56.009Z,21.92
2018-07-21T07:45:56.079Z,22.06
2018-07-21T07:46:56.043Z,22.22
2018-07-21T07:47:56.071Z,22.52
2018-07-21T07:48:56.080Z,22.65
2018-07-21T07:49:56.094Z,22.36
2018-07-21T07:50:56.118Z,22.47
2018-07-21T07:51:56.182Z,22.52
2018-07-21T07:52:56.151Z,22.51
2018-07-21T07:53:56.175Z,22.85
2018-07-21T07:54:56.200Z,23.02
2018-07-21T07:55:56.207Z,22.94
2018-07-21T07:56:56.233Z,23.23
2018-07-21T07:57:56.390Z,23.25
2018-07-21T07:58:56.259Z,23.20
2018-07-21T07:59:56.278Z,23.01
2018-07-21T08:00:56.295Z,23.09
2018-07-21T08:01:56.316Z,22.94
2018-07-21T08:02:56.339Z,23.05
2018-07-21T08:03:56.358Z,23.22
2018-07-21T08:04:56.371Z,23.50
2018-07-21T08:05:56.393Z,23.53
2018-07-21T08:06:56.405Z,23.40
2018-07-21T08:07:56.430Z,23.15
2018-07-21T08:08:56.448Z,23.31
2018-07-21T08:09:56.512Z,23.61
2018-07-21T08:10:56.503Z,23.46
2018-07-21T08:11:56.502Z,23.27
2018-07-21T08:12:56.520Z,23.27
2018-07-21T08:13:56.540Z,23.05
2018-07-21T08:14:56.558Z,23.22
2018-07-21T08:15:56.675Z,23.22
2018-07-21T08:16:56.592Z,23.32
2018-07-21T08:17:56.610Z,23.42
2018-07-21T08:18:56.629Z,23.55
2018-07-21T08:19:56.643Z,23.88
2018-07-21T08:20:56.665Z,23.88
2018-07-21T08:21:56.813Z,24.22
2018-07-21T08:22:56.706Z,24.39
2018-07-21T08:23:56.730Z,24.45
2018-07-21T08:24:56.746Z,24.34
2018-07-21T08:25:56.764Z,24.27
2018-07-21T08:26:56.783Z,23.73
2018-07-21T08:27:56.854Z,23.72
2018-07-21T08:28:56.835Z,23.40
2018-07-21T08:29:56.836Z,23.36
2018-07-21T08:30:56.869Z,23.60
2018-07-21T08:31:56.875Z,23.60
2018-07-21T08:32:56.892Z,24.00
2018-07-21T08:33:57.005Z,23.70
2018-07-21T08:34:56.936Z,23.63
2018-07-21T08:35:56.957Z,23.87
2018-07-21T08:36:56.973Z,24.15
2018-07-21T08:37:56.997Z,24.10
2018-07-21T08:38:57.007Z,24.09
2018-07-21T08:39:57.087Z,24.27
2018-07-21T08:40:57.050Z,24.16
2018-07-21T08:41:57.071Z,24.08
2018-07-21T08:42:57.091Z,24.39
2018-07-21T08:43:57.165Z,24.46
2018-07-21T08:44:57.127Z,24.43
2018-07-21T08:45:57.154Z,24.53
2018-07-21T08:46:57.166Z,24.83
2018-07-21T08:47:57.178Z,24.84
2018-07-21T08:48:57.206Z,24.78
2018-07-21T08:49:57.309Z,24.58
2018-07-21T08:50:57.243Z,24.71
2018-07-21T08:51:57.267Z,24.76
2018-07-21T08:52:57.283Z,24.83
2018-07-21T08:53:57.305Z,24.90
2018-07-21T08:54:57.321Z,24.61
2018-07-21T08:55:57.404Z,24.62
2018-07-21T08:56:57.363Z,24.58
2018-07-21T08:57:57.445Z,24.73
2018-07-21T08:58:57.397Z,24.90
2018-07-21T08:59:57.416Z,24.98
2018-07-21T09:00:57.435Z,25.28
2018-07-21T09:01:57.457Z,25.25
2018-07-21T09:02:57.481Z,25.52
2018-07-21T09:03:57.547Z,25.45
2018-07-21T09:04:57.513Z,25.55
2018-07-21T09:05:57.537Z,26.07
2018-07-21T09:06:57.560Z,26.47
2018-07-21T09:07:57.577Z,26.60
2018-07-21T09:08:57.649Z,26.76
2018-07-21T09:09:57.664Z,26.85
2018-07-21T09:10:57.634Z,26.54
2018-07-21T09:11:57.661Z,26.10
2018-07-21T09:12:57.677Z,26.37
2018-07-21T09:13:57.698Z,26.37
2018-07-21T09:14:57.725Z,26.09
2018-07-21T09:15:57.823Z,26.10
2018-07-21T09:16:57.759Z,26.15
2018-07-21T09:17:57.780Z,26.28
2018-07-21T09:18:57.801Z,26.43
2018-07-21T09:19:57.815Z,26.21
2018-07-21T09:20:57.849Z,26.33
2018-07-21T09:21:57.879Z,26.85
2018-07-21T09:22:57.875Z,26.88
2018-07-21T09:23:57.945Z,26.84
2018-07-21T09:24:57.932Z,26.67
2018-07-21T09:25:57.962Z,26.87
2018-07-21T09:26:57.957Z,27.27
2018-07-21T09:27:57.990Z,27.31
2018-07-21T09:28:58.002Z,27.02
2018-07-21T09:29:58.033Z,26.88
2018-07-21T09:30:58.052Z,26.39
2018-07-21T09:31:58.073Z,26.20
2018-07-21T09:32:58.096Z,26.20
2018-07-21T09:33:58.109Z,26.47
2018-07-21T09:34:58.125Z,26.29
2018-07-21T09:35:58.151Z,26.44
2018-07-21T09:36:58.177Z,25.83
2018-07-21T09:37:58.197Z,26.15
2018-07-21T09:38:58.212Z,26.72
2018-07-21T09:39:58.284Z,26.76
2018-07-21T09:40:58.251Z,27.10
2018-07-21T09:41:58.272Z,27.02
2018-07-21T09:42:58.295Z,27.02
2018-07-21T09:43:58.310Z,27.12
2018-07-21T09:44:58.338Z,26.88
2018-07-21T09:45:58.357Z,27.19
2018-07-21T09:46:58.438Z,27.50
2018-07-21T09:47:58.393Z,27.37
2018-07-21T09:48:58.417Z,27.46
2018-07-21T09:49:58.441Z,27.92
2018-07-21T09:50:58.469Z,28.40
2018-07-21T09:51:58.540Z,28.41
2018-07-21T09:52:58.561Z,28.15
2018-07-21T09:53:58.532Z,27.46
2018-07-21T09:54:58.548Z,27.19
2018-07-21T09:55:58.653Z,27.40
2018-07-21T09:56:58.595Z,27.49
2018-07-21T09:57:58.664Z,26.80
2018-07-21T09:58:58.694Z,26.75
2018-07-21T09:59:58.658Z,27.18
2018-07-21T10:00:58.678Z,27.10
2018-07-21T10:01:58.704Z,27.06
2018-07-21T10:02:58.722Z,27.29
2018-07-21T10:03:58.739Z,27.18
2018-07-21T10:04:58.767Z,27.22
2018-07-21T10:05:58.786Z,27.18
2018-07-21T10:06:58.802Z,27.60
2018-07-21T10:07:58.828Z,27.94
2018-07-21T10:08:58.855Z,27.82
2018-07-21T10:09:58.869Z,27.84
2018-07-21T10:10:58.891Z,28.30
2018-07-21T10:11:58.915Z,28.51
2018-07-21T10:12:58.930Z,28.30
2018-07-21T10:13:58.949Z,28.22
2018-07-21T10:14:58.977Z,27.90
2018-07-21T10:15:59.003Z,28.29
2018-07-21T10:16:59.022Z,28.46
2018-07-21T10:17:59.040Z,28.46
2018-07-21T10:18:59.063Z,28.39
2018-07-21T10:19:59.077Z,27.78
2018-07-21T10:20:59.103Z,28.22
2018-07-21T10:21:59.212Z,28.25
2018-07-21T10:22:59.141Z,28.11
2018-07-21T10:23:59.176Z,28.18
2018-07-21T10:24:59.191Z,27.99
2018-07-21T10:25:59.213Z,27.90
2018-07-21T10:26:59.228Z,28.34
2018-07-21T10:27:59.253Z,28.59
2018-07-21T10:28:59.280Z,28.36
2018-07-21T10:29:59.333Z,28.30
2018-07-21T10:30:59.326Z,28.29
2018-07-21T10:31:59.352Z,27.94
2018-07-21T10:32:59.364Z,27.94
2018-07-21T10:33:59.443Z,28.54
2018-07-21T10:34:59.407Z,29.00
2018-07-21T10:35:59.570Z,28.64
2018-07-21T10:36:59.449Z,29.06
2018-07-21T10:37:59.488Z,28.77
2018-07-21T10:38:59.493Z,29.19
2018-07-21T10:39:59.571Z,29.26
2018-07-21T10:40:59.548Z,29.31
2018-07-21T10:41:59.631Z,29.18
2018-07-21T10:42:59.591Z,28.49
2018-07-21T10:43:59.604Z,28.90
2018-07-21T10:44:59.639Z,29.23
2018-07-21T10:45:59.706Z,29.27
2018-07-21T10:46:59.675Z,28.74
2018-07-21T10:47:59.755Z,28.86
2018-07-21T10:48:59.721Z,29.27
2018-07-21T10:49:59.743Z,29.36
2018-07-21T10:50:59.769Z,29.52
2018-07-21T10:51:59.839Z,29.90
2018-07-21T10:52:59.810Z,30.00
2018-07-21T10:53:59.833Z,29.71
2018-07-21T10:54:59.859Z,28.90
2018-07-21T10:55:59.879Z,29.27
2018-07-21T10:56:59.906Z,29.08
2018-07-21T10:57:59.920Z,28.88
2018-07-21T10:58:59.944Z,29.15
2018-07-21T10:59:59.964Z,29.31
2018-07-21T11:00:59.987Z,29.39
2018-07-21T11:02:00.005Z,30.02
2018-07-21T11:03:00.039Z,30.39
2018-07-21T11:04:00.118Z,30.07
2018-07-21T11:05:00.077Z,29.26
2018-07-21T11:06:00.099Z,29.33
2018-07-21T11:07:00.121Z,29.26
2018-07-21T11:08:00.192Z,29.52
2018-07-21T11:09:00.168Z,29.39
2018-07-21T11:10:00.192Z,29.37
2018-07-21T11:11:00.217Z,29.24
2018-07-21T11:12:00.271Z,29.52
2018-07-21T11:13:00.261Z,29.92
2018-07-21T11:14:00.277Z,29.87
2018-07-21T11:15:00.355Z,29.53
2018-07-21T11:16:00.381Z,29.90
2018-07-21T11:17:00.355Z,30.23
2018-07-21T11:18:00.375Z,30.24
2018-07-21T11:19:00.403Z,30.20
2018-07-21T11:20:00.422Z,30.35
2018-07-21T11:21:00.448Z,29.70
2018-07-21T11:22:00.501Z,30.00
2018-07-21T11:23:00.488Z,29.79
2018-07-21T11:24:00.516Z,29.95
2018-07-21T11:25:00.541Z,30.26
2018-07-21T11:26:00.562Z,30.35
2018-07-21T11:27:00.580Z,30.24
2018-07-21T11:28:00.656Z,30.13
2018-07-21T11:29:00.624Z,30.57
2018-07-21T11:30:00.652Z,30.24
2018-07-21T11:31:00.673Z,30.37
2018-07-21T11:32:00.696Z,29.78
2018-07-21T11:33:00.718Z,30.13
2018-07-21T11:34:00.792Z,30.34
2018-07-21T11:35:00.764Z,30.17
2018-07-21T11:36:01.151Z,29.68
2018-07-21T11:37:00.811Z,29.48
2018-07-21T11:38:00.839Z,29.94
2018-07-21T11:39:00.864Z,29.82
2018-07-21T11:40:00.937Z,30.46
2018-07-21T11:41:00.906Z,30.45
2018-07-21T11:42:00.924Z,30.86
2018-07-21T11:43:01.031Z,30.10
2018-07-21T11:44:00.967Z,30.23
2018-07-21T11:45:00.991Z,30.15
2018-07-21T11:46:01.018Z,30.04
2018-07-21T11:47:01.042Z,29.85
2018-07-21T11:48:01.060Z,30.24
2018-07-21T11:49:01.176Z,30.02
2018-07-21T11:50:01.111Z,30.35
2018-07-21T11:51:01.164Z,30.75
2018-07-21T11:52:01.162Z,30.79
2018-07-21T11:53:01.187Z,30.92
2018-07-21T11:54:01.201Z,30.82
2018-07-21T11:55:01.293Z,30.72
2018-07-21T11:56:01.266Z,30.51
2018-07-21T11:57:01.273Z,30.79
2018-07-21T11:58:01.344Z,30.89
2018-07-21T11:59:01.364Z,30.42
2018-07-21T12:00:01.345Z,30.70
2018-07-21T12:01:01.372Z,30.92
2018-07-21T12:02:01.388Z,30.94
2018-07-21T12:03:01.422Z,30.97
2018-07-21T12:04:01.436Z,30.92
2018-07-21T12:05:01.460Z,31.14
2018-07-21T12:06:01.487Z,30.26
2018-07-21T12:07:01.513Z,30.62
2018-07-21T12:08:01.534Z,30.57
2018-07-21T12:09:01.564Z,30.58
2018-07-21T12:10:01.647Z,30.77
2018-07-21T12:11:01.599Z,30.46
2018-07-21T12:12:01.627Z,30.23
2018-07-21T12:13:01.661Z,30.34
2018-07-21T12:14:01.676Z,30.53
2018-07-21T12:15:01.698Z,30.67
2018-07-21T12:16:01.773Z,30.43
2018-07-21T12:17:01.739Z,30.05
2018-07-21T12:18:01.769Z,30.38
2018-07-21T12:19:01.794Z,29.79
2018-07-21T12:20:01.893Z,29.70
2018-07-21T12:21:01.844Z,30.01
2018-07-21T12:22:01.917Z,29.98
2018-07-21T12:23:01.890Z,30.01
2018-07-21T12:24:01.899Z,30.47
2018-07-21T12:25:01.927Z,30.91
2018-07-21T12:26:01.973Z,31.07
2018-07-21T12:27:01.974Z,30.79
2018-07-21T12:28:01.996Z,30.75
2018-07-21T12:29:02.025Z,30.95
2018-07-21T12:30:02.049Z,30.70
2018-07-21T12:31:02.069Z,31.14
2018-07-21T12:32:02.126Z,31.38
2018-07-21T12:33:02.111Z,30.10
2018-07-21T12:34:02.188Z,30.62
2018-07-21T12:35:02.159Z,31.07
2018-07-21T12:36:02.188Z,31.07
2018-07-21T12:37:02.208Z,31.01
2018-07-21T12:38:02.242Z,31.31
2018-07-21T12:39:02.254Z,31.28
2018-07-21T12:40:02.350Z,31.61
2018-07-21T12:41:02.306Z,31.65
2018-07-21T12:42:02.321Z,31.57
2018-07-21T12:43:02.356Z,31.80
2018-07-21T12:44:02.377Z,30.79
2018-07-21T12:45:02.402Z,30.94
2018-07-21T12:46:02.495Z,31.48
2018-07-21T12:47:02.454Z,31.72
2018-07-21T12:48:02.477Z,31.26
2018-07-21T12:49:02.497Z,31.56
2018-07-21T12:50:02.519Z,31.13
2018-07-21T12:51:02.590Z,30.15
2018-07-21T12:52:02.559Z,30.34
2018-07-21T12:53:02.592Z,30.67